Time;durP1;ratioP1;P1;durP2;ratioP2;P2;SDS_P1;SDS_P2;PMS_P1;PMS_P2;Temp;Humidity;BMP_temperature;BMP_pressure;BME280_temperature;BME280_humidity;BME280_pressure;Samples;Min_cycle;Max_cycle;Signal;HPM_P1;HPM_P2
2021/08/24 00:02:13;;;;;;;1.67;1.30;;;;;;;;;;6166450;23;20220;-91
2021/08/24 00:05:21;;;;;;;2.03;1.10;;;;;;;;;;6166838;23;20248;-90
2021/08/24 00:08:28;;;;;;;2.65;1.20;;;;;;;;;;6166756;23;20230;-90
2021/08/24 00:11:34;;;;;;;2.20;1.20;;;;;;;;;;6167527;23;20222;-91
2021/08/24 00:14:39;;;;;;;2.60;1.02;;;;;;;;;;6165693;23;20184;-90
2021/08/24 00:17:44;;;;;;;3.88;1.35;;;;;;;;;;6166073;23;20236;-90
2021/08/24 00:20:50;;;;;;;3.67;1.00;;;;;;;;;;6166058;23;20176;-91
2021/08/24 00:23:57;;;;;;;2.15;1.10;;;;;;;;;;6166888;23;20221;-90
2021/08/24 00:27:01;;;;;;;2.20;1.10;;;;;;;;;;6165341;23;20224;-90
2021/08/24 00:30:07;;;;;;;1.20;1.00;;;;;;;;;;6165413;23;20172;-90
2021/08/24 00:33:12;;;;;;;2.38;0.98;;;;;;;;;;6166045;23;20196;-91
2021/08/24 00:36:19;;;;;;;1.77;0.90;;;;;;;;;;6165258;23;20168;-89
2021/08/24 00:39:26;;;;;;;3.28;1.00;;;;;;;;;;6167265;23;20177;-90
2021/08/24 00:42:31;;;;;;;2.05;1.10;;;;;;;;;;6167072;23;20168;-91
2021/08/24 00:45:37;;;;;;;1.88;0.80;;;;;;;;;;6166797;23;20300;-90
2021/08/24 00:48:43;;;;;;;1.55;1.20;;;;;;;;;;6165321;23;20168;-89
2021/08/24 00:51:51;;;;;;;3.60;1.30;;;;;;;;;;6165455;23;20171;-88
2021/08/24 00:54:58;;;;;;;2.42;1.10;;;;;;;;;;6165738;23;20169;-90
2021/08/24 00:58:06;;;;;;;1.40;1.00;;;;;;;;;;6165534;23;20180;-90
2021/08/24 01:01:12;;;;;;;4.78;1.20;;;;;;;;;;6167400;23;20604;-89
2021/08/24 01:04:17;;;;;;;3.28;1.50;;;;;;;;;;6164710;23;20168;-90
2021/08/24 01:07:24;;;;;;;2.33;1.10;;;;;;;;;;6163254;23;20179;-90
2021/08/24 01:10:40;;;;;;;3.53;1.30;;;;;;;;;;6163595;23;20168;-89
2021/08/24 01:13:52;;;;;;;3.90;1.70;;;;;;;;;;6163474;23;20272;-91
2021/08/24 01:17:00;;;;;;;1.98;1.15;;;;;;;;;;6163095;23;20188;-89
2021/08/24 01:20:25;;;;;;;1.08;0.90;;;;;;;;;;6162790;23;20168;-88
2021/08/24 01:23:38;;;;;;;7.07;1.35;;;;;;;;;;6164221;23;20168;-89
2021/08/24 01:26:46;;;;;;;2.38;0.98;;;;;;;;;;6164511;23;20172;-88
2021/08/24 01:30:05;;;;;;;3.10;1.10;;;;;;;;;;6164630;23;20161;-90
2021/08/24 01:33:12;;;;;;;4.20;1.00;;;;;;;;;;6164266;23;20208;-89
2021/08/24 01:36:20;;;;;;;3.10;1.08;;;;;;;;;;6163075;23;20176;-91
2021/08/24 01:39:26;;;;;;;1.20;0.90;;;;;;;;;;6163711;23;20164;-90
2021/08/24 01:42:32;;;;;;;2.20;1.13;;;;;;;;;;6163790;23;20628;-90
2021/08/24 01:45:39;;;;;;;3.78;1.00;;;;;;;;;;6163879;23;20173;-91
2021/08/24 01:48:48;;;;;;;1.17;0.88;;;;;;;;;;6162442;23;20236;-88
2021/08/24 01:51:55;;;;;;;5.50;1.30;;;;;;;;;;6164080;23;20181;-88
2021/08/24 01:55:02;;;;;;;2.42;1.30;;;;;;;;;;6163869;23;20172;-89
2021/08/24 01:58:11;;;;;;;5.85;1.30;;;;;;;;;;6165473;23;20263;-91
2021/08/24 02:01:17;;;;;;;2.67;1.15;;;;;;;;;;6164960;23;20173;-90
2021/08/24 02:04:24;;;;;;;1.10;0.95;;;;;;;;;;6164393;23;20167;-90
2021/08/24 02:07:32;;;;;;;2.40;0.90;;;;;;;;;;6164319;23;20173;-88
2021/08/24 02:10:38;;;;;;;4.88;1.20;;;;;;;;;;6162316;23;20168;-90
2021/08/24 02:13:43;;;;;;;4.50;0.90;;;;;;;;;;6163530;23;20676;-91
2021/08/24 02:16:49;;;;;;;2.55;1.00;;;;;;;;;;6163380;23;20531;-88
2021/08/24 02:19:55;;;;;;;1.55;1.20;;;;;;;;;;6162831;23;20244;-90
2021/08/24 02:23:04;;;;;;;3.42;1.30;;;;;;;;;;6162880;23;20204;-88
2021/08/24 02:26:11;;;;;;;4.07;1.40;;;;;;;;;;6162300;23;20168;-91
2021/08/24 02:29:16;;;;;;;1.63;1.17;;;;;;;;;;6161667;23;20168;-90
2021/08/24 02:32:22;;;;;;;5.22;1.10;;;;;;;;;;6163404;23;20285;-90
2021/08/24 02:35:32;;;;;;;1.48;1.05;;;;;;;;;;6161973;23;20169;-90
2021/08/24 02:38:39;;;;;;;2.05;0.93;;;;;;;;;;6161914;23;20631;-88
2021/08/24 02:41:47;;;;;;;3.45;1.02;;;;;;;;;;6161383;23;20171;-89
2021/08/24 02:44:56;;;;;;;1.80;1.15;;;;;;;;;;6160414;23;20192;-89
2021/08/24 02:48:02;;;;;;;3.17;1.00;;;;;;;;;;6162157;23;20200;-90
2021/08/24 02:51:07;;;;;;;1.88;0.88;;;;;;;;;;6163264;23;20184;-92
2021/08/24 02:54:15;;;;;;;3.33;0.85;;;;;;;;;;6162688;23;20267;-90
2021/08/24 02:57:20;;;;;;;3.60;1.10;;;;;;;;;;6164035;23;20172;-90
2021/08/24 03:00:25;;;;;;;2.33;0.98;;;;;;;;;;6162943;23;20180;-89
2021/08/24 03:03:30;;;;;;;4.13;1.33;;;;;;;;;;6163538;23;20172;-89
2021/08/24 03:06:37;;;;;;;3.60;1.10;;;;;;;;;;6164154;23;20172;-90
2021/08/24 03:09:44;;;;;;;4.05;1.00;;;;;;;;;;6162473;23;20180;-90
2021/08/24 03:12:51;;;;;;;2.25;1.00;;;;;;;;;;6163004;23;20192;-91
2021/08/24 03:15:59;;;;;;;0.95;0.85;;;;;;;;;;6164690;23;20184;-90
2021/08/24 03:19:07;;;;;;;0.90;0.80;;;;;;;;;;6169602;23;20152;-89
2021/08/24 03:22:14;;;;;;;1.55;0.90;;;;;;;;;;6168156;23;20172;-90
2021/08/24 03:25:21;;;;;;;2.83;1.00;;;;;;;;;;6163435;23;20598;-90
2021/08/24 03:28:25;;;;;;;1.80;1.00;;;;;;;;;;6162314;23;20668;-91
2021/08/24 03:31:30;;;;;;;4.75;0.95;;;;;;;;;;6163053;23;20196;-89
2021/08/24 03:34:35;;;;;;;2.28;0.80;;;;;;;;;;6161588;23;20265;-90
2021/08/24 03:37:40;;;;;;;1.80;0.85;;;;;;;;;;6162262;23;20191;-89
2021/08/24 03:40:46;;;;;;;1.60;1.10;;;;;;;;;;6163887;23;20172;-90
2021/08/24 03:43:51;;;;;;;2.75;0.82;;;;;;;;;;6162909;23;20192;-91
2021/08/24 03:46:56;;;;;;;1.45;0.88;;;;;;;;;;6162543;23;20229;-92
2021/08/24 03:50:01;;;;;;;2.47;0.98;;;;;;;;;;6162691;23;20177;-90
2021/08/24 03:53:06;;;;;;;2.25;1.00;;;;;;;;;;6163261;23;20172;-92
2021/08/24 03:56:12;;;;;;;2.92;0.80;;;;;;;;;;6163438;23;20267;-90
2021/08/24 03:59:18;;;;;;;1.33;0.88;;;;;;;;;;6161826;23;20177;-88
2021/08/24 04:02:32;;;;;;;2.78;0.88;;;;;;;;;;6162521;23;20277;-89
2021/08/24 04:05:38;;;;;;;1.92;1.10;;;;;;;;;;6162265;23;20247;-89
2021/08/24 04:08:50;;;;;;;1.17;0.90;;;;;;;;;;6163093;23;20184;-90
2021/08/24 04:11:56;;;;;;;4.15;1.10;;;;;;;;;;6163412;23;20172;-91
2021/08/24 04:15:02;;;;;;;1.90;1.00;;;;;;;;;;6162810;23;20192;-91
2021/08/24 04:18:07;;;;;;;3.60;1.17;;;;;;;;;;6163331;23;20168;-90
2021/08/24 04:21:14;;;;;;;1.95;1.08;;;;;;;;;;6162217;23;20176;-90
2021/08/24 04:24:19;;;;;;;6.22;1.13;;;;;;;;;;6164475;23;20221;-90
2021/08/24 04:27:25;;;;;;;6.60;1.42;;;;;;;;;;6163496;23;20300;-90
2021/08/24 04:30:30;;;;;;;3.38;1.20;;;;;;;;;;6163035;23;20223;-88
2021/08/24 04:33:36;;;;;;;3.75;0.95;;;;;;;;;;6163205;23;20191;-89
2021/08/24 04:36:40;;;;;;;2.78;1.10;;;;;;;;;;6163038;23;20185;-90
2021/08/24 04:39:46;;;;;;;2.88;1.08;;;;;;;;;;6165518;23;20177;-89
2021/08/24 04:42:53;;;;;;;3.80;1.13;;;;;;;;;;6165979;23;20216;-89
2021/08/24 04:45:57;;;;;;;5.65;1.08;;;;;;;;;;6174591;23;20501;-90
2021/08/24 04:49:02;;;;;;;3.28;1.20;;;;;;;;;;6175936;23;20615;-90
2021/08/24 04:52:07;;;;;;;2.90;1.20;;;;;;;;;;6177303;23;20232;-91
2021/08/24 04:55:13;;;;;;;6.63;1.70;;;;;;;;;;6176762;23;20664;-88
2021/08/24 04:58:19;;;;;;;5.88;1.40;;;;;;;;;;6174662;23;20171;-89
2021/08/24 05:01:24;;;;;;;7.63;1.45;;;;;;;;;;6176310;23;20628;-89
2021/08/24 05:04:30;;;;;;;3.20;1.88;;;;;;;;;;6176270;23;20631;-88
2021/08/24 05:07:35;;;;;;;2.22;1.20;;;;;;;;;;6175193;23;20180;-89
2021/08/24 05:10:40;;;;;;;5.05;1.38;;;;;;;;;;6173653;23;20168;-89
2021/08/24 05:13:46;;;;;;;2.45;1.10;;;;;;;;;;6177657;23;20199;-87
2021/08/24 05:16:54;;;;;;;3.88;1.20;;;;;;;;;;6176000;23;20176;-90
2021/08/24 05:19:59;;;;;;;4.43;1.10;;;;;;;;;;6176143;23;20635;-88
2021/08/24 05:23:03;;;;;;;2.78;1.58;;;;;;;;;;6177305;23;20265;-89
2021/08/24 05:26:09;;;;;;;5.10;1.40;;;;;;;;;;6176840;23;20668;-88
2021/08/24 05:35:54;;;;;;;4.57;1.60;;;;;;;;;;6178580;23;20184;-92
2021/08/24 05:39:01;;;;;;;2.05;1.30;;;;;;;;;;6177753;23;20187;-90
2021/08/24 05:42:07;;;;;;;4.70;1.60;;;;;;;;;;6162312;23;20639;-89
2021/08/24 05:45:14;;;;;;;2.13;1.30;;;;;;;;;;6177719;23;20627;-90
2021/08/24 05:48:18;;;;;;;4.05;1.40;;;;;;;;;;6178068;23;20694;-91
2021/08/24 05:51:24;;;;;;;4.20;1.45;;;;;;;;;;6178244;23;20171;-89
2021/08/24 05:54:30;;;;;;;4.15;1.45;;;;;;;;;;6180495;23;20199;-91
2021/08/24 05:57:35;;;;;;;3.60;1.48;;;;;;;;;;6178344;23;20168;-91
2021/08/24 06:00:42;;;;;;;9.60;1.60;;;;;;;;;;6177917;23;20171;-90
2021/08/24 06:03:47;;;;;;;6.00;1.70;;;;;;;;;;6180467;23;20175;-91
2021/08/24 06:06:52;;;;;;;7.40;1.50;;;;;;;;;;6178221;23;20170;-90
2021/08/24 06:09:57;;;;;;;2.55;1.20;;;;;;;;;;6177274;23;20171;-91
2021/08/24 06:13:02;;;;;;;2.67;1.30;;;;;;;;;;6176388;23;20171;-91
2021/08/24 06:16:09;;;;;;;4.25;1.50;;;;;;;;;;6177975;23;20249;-89
2021/08/24 06:19:15;;;;;;;4.30;1.48;;;;;;;;;;6176372;23;20651;-88
2021/08/24 06:22:20;;;;;;;4.90;2.15;;;;;;;;;;6177306;23;20208;-90
2021/08/24 06:25:24;;;;;;;3.80;1.63;;;;;;;;;;6176344;23;20184;-86
2021/08/24 06:28:31;;;;;;;2.75;1.42;;;;;;;;;;6179348;23;20264;-89
2021/08/24 06:31:40;;;;;;;5.80;1.55;;;;;;;;;;6181224;23;20219;-89
2021/08/24 06:34:45;;;;;;;4.70;2.15;;;;;;;;;;6180887;23;20208;-90
2021/08/24 06:37:50;;;;;;;5.63;1.80;;;;;;;;;;6180884;23;20223;-90
2021/08/24 06:40:55;;;;;;;3.88;1.85;;;;;;;;;;6181951;23;20180;-90
2021/08/24 06:44:00;;;;;;;4.10;1.80;;;;;;;;;;6165499;23;20199;-91
2021/08/24 06:47:07;;;;;;;8.43;1.48;;;;;;;;;;6166173;23;20179;-89
2021/08/24 06:50:12;;;;;;;9.68;1.90;;;;;;;;;;6167248;23;20597;-89
2021/08/24 06:53:17;;;;;;;4.10;1.60;;;;;;;;;;6168462;23;20173;-90
2021/08/24 06:56:22;;;;;;;2.25;1.40;;;;;;;;;;6165575;23;20279;-91
2021/08/24 06:59:27;;;;;;;4.50;1.50;;;;;;;;;;6166067;23;20168;-89
2021/08/24 07:02:36;;;;;;;3.33;1.20;;;;;;;;;;6166379;23;20220;-92
2021/08/24 07:05:43;;;;;;;5.03;1.50;;;;;;;;;;6168972;23;20173;-90
2021/08/24 07:08:53;;;;;;;5.70;2.10;;;;;;;;;;6168007;23;20212;-90
2021/08/24 07:15:22;;;;;;;5.00;1.75;;;;;;;;;;6166469;23;20204;-89
2021/08/24 07:18:29;;;;;;;3.33;1.50;;;;;;;;;;6162899;23;20660;-89
2021/08/24 07:21:34;;;;;;;5.72;1.65;;;;;;;;;;6165456;23;20173;-91
2021/08/24 07:24:39;;;;;;;6.25;1.55;;;;;;;;;;6164323;23;20247;-92
2021/08/24 07:27:44;;;;;;;3.22;1.73;;;;;;;;;;6164681;23;20172;-91
2021/08/24 07:30:50;;;;;;;5.00;1.65;;;;;;;;;;6166974;23;20169;-90
2021/08/24 07:33:57;;;;;;;5.60;1.60;;;;;;;;;;6167449;23;20168;-90
2021/08/24 07:37:02;;;;;;;9.73;3.33;;;;;;;;;;6169743;23;20171;-90
2021/08/24 07:40:08;;;;;;;9.38;1.80;;;;;;;;;;6171124;23;20236;-89
2021/08/24 07:43:13;;;;;;;8.20;2.08;;;;;;;;;;6174505;23;20190;-89
2021/08/24 07:46:19;;;;;;;2.58;1.58;;;;;;;;;;6180930;23;20171;-89
2021/08/24 07:49:26;;;;;;;3.58;1.70;;;;;;;;;;6180453;23;20724;-90
2021/08/24 07:52:31;;;;;;;3.88;1.38;;;;;;;;;;6183448;23;20200;-89
2021/08/24 07:55:36;;;;;;;8.45;1.80;;;;;;;;;;6184102;23;20195;-89
2021/08/24 07:58:42;;;;;;;7.53;1.90;;;;;;;;;;6182676;23;20171;-89
2021/08/24 08:01:47;;;;;;;2.53;1.70;;;;;;;;;;6180990;23;20212;-90
2021/08/24 08:04:54;;;;;;;2.97;1.50;;;;;;;;;;6184526;23;20192;-90
2021/08/24 08:07:59;;;;;;;7.28;1.70;;;;;;;;;;6182501;23;20223;-89
2021/08/24 08:11:04;;;;;;;6.32;1.90;;;;;;;;;;6183116;23;20250;-91
2021/08/24 08:14:11;;;;;;;4.35;1.80;;;;;;;;;;6182848;23;20171;-91
2021/08/24 08:17:17;;;;;;;5.70;1.75;;;;;;;;;;6185096;23;20176;-89
2021/08/24 08:20:25;;;;;;;4.72;1.60;;;;;;;;;;6182488;23;20181;-91
2021/08/24 08:23:32;;;;;;;5.72;2.00;;;;;;;;;;6180329;23;20183;-89
2021/08/24 08:26:38;;;;;;;4.75;1.77;;;;;;;;;;6178750;23;20167;-89
2021/08/24 08:29:43;;;;;;;3.22;1.52;;;;;;;;;;6179647;23;20171;-89
2021/08/24 08:32:49;;;;;;;6.65;1.67;;;;;;;;;;6180757;23;20163;-91
2021/08/24 08:35:56;;;;;;;3.58;1.70;;;;;;;;;;6180364;23;20282;-88
2021/08/24 08:39:04;;;;;;;3.17;1.70;;;;;;;;;;6182414;23;20227;-90
2021/08/24 08:42:27;;;;;;;3.00;1.45;;;;;;;;;;6197154;23;20172;-89
2021/08/24 08:45:37;;;;;;;4.13;1.35;;;;;;;;;;6179067;23;20292;-89
2021/08/24 08:48:46;;;;;;;3.00;1.48;;;;;;;;;;6177522;23;20183;-89
2021/08/24 08:51:57;;;;;;;5.65;1.63;;;;;;;;;;6179441;23;20175;-89
2021/08/24 08:55:05;;;;;;;3.55;1.88;;;;;;;;;;6178331;23;20226;-89
2021/08/24 08:58:15;;;;;;;3.15;1.67;;;;;;;;;;6179273;23;20212;-89
2021/08/24 09:01:23;;;;;;;3.60;1.60;;;;;;;;;;6179084;23;20518;-88
2021/08/24 09:04:34;;;;;;;5.60;1.42;;;;;;;;;;6180372;23;20172;-89
2021/08/24 09:07:43;;;;;;;4.07;1.35;;;;;;;;;;6177192;23;20184;-88
2021/08/24 09:10:49;;;;;;;5.10;1.80;;;;;;;;;;6177314;23;20183;-88
2021/08/24 09:13:58;;;;;;;3.42;1.73;;;;;;;;;;6178777;23;20221;-89
2021/08/24 09:17:05;;;;;;;4.28;1.65;;;;;;;;;;6177048;23;20168;-88
2021/08/24 09:20:13;;;;;;;3.58;1.67;;;;;;;;;;6179317;23;20211;-87
2021/08/24 09:23:19;;;;;;;1.92;1.52;;;;;;;;;;6179580;23;20172;-89
2021/08/24 09:26:43;;;;;;;3.33;1.80;;;;;;;;;;6182041;23;20216;-89
2021/08/24 09:29:50;;;;;;;3.75;1.85;;;;;;;;;;6179080;23;20171;-89
2021/08/24 09:32:58;;;;;;;2.97;1.80;;;;;;;;;;6181057;23;20176;-88
2021/08/24 09:36:03;;;;;;;3.15;1.85;;;;;;;;;;6182767;23;20187;-89
2021/08/24 09:39:11;;;;;;;3.20;1.48;;;;;;;;;;6181695;23;20499;-89
2021/08/24 09:42:16;;;;;;;3.58;1.92;;;;;;;;;;6182475;23;20172;-90
2021/08/24 09:45:27;;;;;;;3.10;1.70;;;;;;;;;;6180985;23;20171;-89
2021/08/24 09:48:33;;;;;;;3.97;1.83;;;;;;;;;;6180611;23;20187;-88
2021/08/24 09:51:45;;;;;;;2.92;1.90;;;;;;;;;;6174093;23;20171;-89
2021/08/24 09:54:55;;;;;;;2.35;1.73;;;;;;;;;;6182629;23;20677;-88
2021/08/24 09:58:02;;;;;;;3.15;2.00;;;;;;;;;;6181517;23;20171;-89
2021/08/24 10:01:09;;;;;;;3.15;1.88;;;;;;;;;;6180101;23;20171;-90
2021/08/24 10:04:15;;;;;;;6.15;2.25;;;;;;;;;;6182025;23;20167;-88
2021/08/24 10:07:32;;;;;;;2.85;1.83;;;;;;;;;;6184392;23;20172;-91
2021/08/24 10:10:39;;;;;;;3.90;2.50;;;;;;;;;;6183867;23;20167;-90
2021/08/24 10:13:46;;;;;;;3.92;2.03;;;;;;;;;;6180718;23;20242;-90
2021/08/24 10:16:54;;;;;;;5.32;2.50;;;;;;;;;;6185700;23;20190;-89
2021/08/24 10:20:00;;;;;;;4.07;2.47;;;;;;;;;;6179658;23;20168;-90
2021/08/24 10:23:06;;;;;;;3.72;2.47;;;;;;;;;;6179457;23;20242;-90
2021/08/24 10:26:24;;;;;;;4.05;2.40;;;;;;;;;;6179304;23;20168;-91
2021/08/24 10:29:32;;;;;;;4.30;2.35;;;;;;;;;;6180481;23;20171;-89
2021/08/24 10:32:39;;;;;;;5.93;2.78;;;;;;;;;;6177405;23;20171;-89
2021/08/24 10:35:44;;;;;;;3.35;2.38;;;;;;;;;;6177088;23;20196;-88
2021/08/24 10:38:56;;;;;;;4.68;2.40;;;;;;;;;;6174778;23;20175;-86
2021/08/24 10:42:06;;;;;;;3.35;2.33;;;;;;;;;;6195088;23;20191;-89
2021/08/24 10:45:24;;;;;;;3.38;2.42;;;;;;;;;;6148957;23;20161;-91
2021/08/24 10:48:32;;;;;;;4.55;2.58;;;;;;;;;;6148984;23;20176;-89
2021/08/24 10:51:43;;;;;;;12.20;4.28;;;;;;;;;;6148778;23;20172;-88
2021/08/24 10:55:20;;;;;;;8.75;2.60;;;;;;;;;;6139941;23;20181;-89
2021/08/24 10:58:31;;;;;;;2.97;2.05;;;;;;;;;;6158363;23;20172;-87
2021/08/24 11:01:40;;;;;;;6.47;1.98;;;;;;;;;;6156905;23;20168;-88
2021/08/24 11:04:51;;;;;;;2.97;1.60;;;;;;;;;;6145836;23;20161;-89
2021/08/24 11:08:01;;;;;;;2.80;2.05;;;;;;;;;;6148095;23;20173;-88
2021/08/24 11:11:09;;;;;;;6.13;1.92;;;;;;;;;;6149779;23;20165;-88
2021/08/24 11:14:21;;;;;;;2.47;1.70;;;;;;;;;;6146713;23;20183;-88
2021/08/24 11:17:29;;;;;;;6.70;1.90;;;;;;;;;;6146146;23;20173;-88
2021/08/24 11:20:39;;;;;;;3.88;1.58;;;;;;;;;;6150200;23;20494;-89
2021/08/24 11:23:49;;;;;;;1.92;1.17;;;;;;;;;;6148476;23;20173;-89
2021/08/24 11:26:57;;;;;;;1.20;0.95;;;;;;;;;;6147169;23;20244;-90
2021/08/24 11:30:09;;;;;;;4.18;1.38;;;;;;;;;;6148653;23;20656;-90
2021/08/24 11:33:16;;;;;;;2.58;1.38;;;;;;;;;;6148804;23;20173;-87
2021/08/24 11:36:23;;;;;;;2.42;1.55;;;;;;;;;;6148738;23;20742;-89
2021/08/24 11:39:39;;;;;;;2.55;1.10;;;;;;;;;;6151207;23;20212;-89
2021/08/24 11:42:47;;;;;;;2.10;1.20;;;;;;;;;;6149456;23;20639;-90
2021/08/24 11:45:54;;;;;;;2.40;1.50;;;;;;;;;;6178609;23;20299;-89
2021/08/24 11:49:04;;;;;;;2.40;1.10;;;;;;;;;;6178262;23;20170;-89
2021/08/24 11:52:16;;;;;;;5.05;1.73;;;;;;;;;;6178275;23;20168;-89
2021/08/24 11:55:23;;;;;;;4.15;1.90;;;;;;;;;;6180208;23;20607;-90
2021/08/24 11:58:34;;;;;;;3.22;1.80;;;;;;;;;;6178193;23;20517;-88
2021/08/24 12:01:46;;;;;;;5.20;1.85;;;;;;;;;;6179873;23;20167;-89
2021/08/24 12:04:52;;;;;;;6.75;1.60;;;;;;;;;;6178105;23;20275;-89
2021/08/24 12:07:58;;;;;;;4.35;1.40;;;;;;;;;;6177041;23;20214;-89
2021/08/24 12:11:05;;;;;;;1.70;1.20;;;;;;;;;;6176745;23;20172;-89
2021/08/24 12:14:18;;;;;;;3.03;1.00;;;;;;;;;;6176573;23;20167;-89
2021/08/24 12:17:27;;;;;;;5.07;1.20;;;;;;;;;;6175146;23;20211;-88
2021/08/24 12:20:37;;;;;;;1.58;1.33;;;;;;;;;;6175779;23;20164;-90
2021/08/24 12:23:43;;;;;;;6.03;1.30;;;;;;;;;;6179899;23;20172;-91
2021/08/24 12:26:48;;;;;;;2.08;1.40;;;;;;;;;;6178237;23;20171;-90
2021/08/24 12:29:53;;;;;;;3.30;1.38;;;;;;;;;;6176800;23;20207;-90
2021/08/24 12:33:28;;;;;;;0.85;0.80;;;;;;;;;;6176463;23;20180;-89
2021/08/24 12:36:56;;;;;;;2.72;1.50;;;;;;;;;;6178352;23;20203;-90
2021/08/24 12:40:26;;;;;;;1.83;1.23;;;;;;;;;;6180478;23;20172;-92
2021/08/24 12:43:40;;;;;;;2.90;0.85;;;;;;;;;;6178851;23;20191;-91
2021/08/24 12:46:45;;;;;;;5.45;1.08;;;;;;;;;;6178369;23;20235;-90
2021/08/24 12:49:52;;;;;;;3.60;1.13;;;;;;;;;;6178674;23;20241;-89
2021/08/24 12:53:17;;;;;;;2.13;0.85;;;;;;;;;;6177531;23;20187;-90
2021/08/24 12:56:41;;;;;;;1.63;1.00;;;;;;;;;;6175856;23;20247;-90
2021/08/24 12:59:47;;;;;;;1.45;0.90;;;;;;;;;;6179180;23;20180;-89
2021/08/24 13:02:57;;;;;;;1.50;0.93;;;;;;;;;;6178273;23;20212;-88
2021/08/24 13:06:20;;;;;;;3.45;0.98;;;;;;;;;;6177536;23;20167;-89
2021/08/24 13:09:30;;;;;;;1.25;0.88;;;;;;;;;;6181972;23;20248;-90
2021/08/24 13:12:38;;;;;;;0.75;0.70;;;;;;;;;;6178634;23;20183;-89
2021/08/24 13:15:51;;;;;;;1.27;0.90;;;;;;;;;;6179487;23;20241;-89
2021/08/24 13:18:57;;;;;;;2.47;1.20;;;;;;;;;;6179275;23;20215;-89
2021/08/24 13:22:09;;;;;;;1.67;1.20;;;;;;;;;;6178353;23;20298;-89
2021/08/24 13:25:16;;;;;;;2.65;1.50;;;;;;;;;;6177013;23;20168;-90
2021/08/24 13:28:25;;;;;;;2.63;1.63;;;;;;;;;;6180055;23;20190;-87
2021/08/24 13:31:40;;;;;;;2.25;1.70;;;;;;;;;;6178289;23;20215;-89
2021/08/24 13:34:47;;;;;;;3.33;1.98;;;;;;;;;;6179620;23;20403;-90
2021/08/24 13:38:05;;;;;;;3.30;2.00;;;;;;;;;;6181514;23;20196;-91
2021/08/24 13:41:13;;;;;;;3.33;2.05;;;;;;;;;;6183025;23;20196;-89
2021/08/24 13:44:22;;;;;;;3.80;2.03;;;;;;;;;;6167872;23;20184;-88
2021/08/24 13:47:27;;;;;;;2.60;2.03;;;;;;;;;;6165305;23;20169;-88
2021/08/24 13:50:34;;;;;;;5.05;2.30;;;;;;;;;;6166641;23;20244;-88
2021/08/24 13:53:51;;;;;;;3.03;2.03;;;;;;;;;;6166122;23;20176;-88
2021/08/24 13:56:56;;;;;;;2.65;2.03;;;;;;;;;;6165492;23;20196;-90
2021/08/24 14:00:06;;;;;;;4.15;2.40;;;;;;;;;;6168599;23;20163;-90
2021/08/24 14:03:18;;;;;;;6.43;2.20;;;;;;;;;;6168642;23;20172;-90
2021/08/24 14:06:28;;;;;;;5.82;2.33;;;;;;;;;;6164606;23;20173;-91
2021/08/24 14:09:36;;;;;;;5.35;2.47;;;;;;;;;;6166402;23;20172;-90
2021/08/24 14:12:50;;;;;;;3.53;2.55;;;;;;;;;;6168226;23;20212;-89
2021/08/24 14:15:57;;;;;;;3.60;2.28;;;;;;;;;;6165906;23;20173;-90
2021/08/24 14:19:06;;;;;;;3.78;2.50;;;;;;;;;;6165779;23;20176;-90
2021/08/24 14:22:13;;;;;;;2.63;2.03;;;;;;;;;;6167257;23;20212;-90
2021/08/24 14:25:22;;;;;;;5.07;2.45;;;;;;;;;;6163091;23;20664;-91
2021/08/24 14:28:27;;;;;;;11.05;2.55;;;;;;;;;;6164185;23;20475;-90
2021/08/24 14:31:35;;;;;;;5.30;2.38;;;;;;;;;;6161615;23;20247;-89
2021/08/24 14:34:42;;;;;;;3.22;1.90;;;;;;;;;;6162823;23;20675;-90
2021/08/24 14:37:47;;;;;;;4.45;2.30;;;;;;;;;;6162046;23;20192;-90
2021/08/24 14:40:53;;;;;;;7.55;2.70;;;;;;;;;;6161948;23;20303;-90
2021/08/24 14:43:58;;;;;;;5.00;2.60;;;;;;;;;;6167054;23;20659;-89
2021/08/24 14:47:07;;;;;;;3.85;2.10;;;;;;;;;;6166240;23;20168;-89
2021/08/24 14:50:13;;;;;;;5.68;2.25;;;;;;;;;;6165213;23;20177;-90
2021/08/24 14:53:24;;;;;;;3.60;1.90;;;;;;;;;;6164907;23;20505;-89
2021/08/24 14:56:31;;;;;;;4.22;2.40;;;;;;;;;;6164886;23;20325;-90
2021/08/24 14:59:36;;;;;;;4.30;2.10;;;;;;;;;;6164240;23;20256;-89
2021/08/24 15:02:47;;;;;;;8.30;2.67;;;;;;;;;;6166421;23;20169;-90
2021/08/24 15:05:53;;;;;;;3.17;2.13;;;;;;;;;;6165072;23;20284;-89
2021/08/24 15:08:57;;;;;;;6.43;2.60;;;;;;;;;;6167556;23;20164;-90
2021/08/24 15:12:03;;;;;;;7.68;2.70;;;;;;;;;;6166556;23;20188;-91
2021/08/24 15:15:12;;;;;;;4.80;2.47;;;;;;;;;;6165317;23;20167;-90
2021/08/24 15:18:23;;;;;;;3.75;2.60;;;;;;;;;;6164827;23;20276;-90
2021/08/24 15:21:29;;;;;;;5.68;2.50;;;;;;;;;;6163531;23;20235;-89
2021/08/24 15:24:36;;;;;;;4.88;2.40;;;;;;;;;;6164914;23;20251;-90
2021/08/24 15:27:48;;;;;;;7.43;2.47;;;;;;;;;;6165954;23;20163;-90
2021/08/24 15:31:02;;;;;;;4.63;2.60;;;;;;;;;;6165658;23;20229;-90
2021/08/24 15:34:08;;;;;;;3.65;2.65;;;;;;;;;;6164855;23;20679;-91
2021/08/24 15:37:15;;;;;;;4.78;3.13;;;;;;;;;;6163102;23;20192;-90
2021/08/24 15:40:21;;;;;;;12.10;4.03;;;;;;;;;;6170061;23;20169;-90
2021/08/24 15:43:27;;;;;;;6.05;3.00;;;;;;;;;;6175614;23;20196;-90
2021/08/24 15:46:33;;;;;;;6.68;3.40;;;;;;;;;;6175910;23;20263;-89
2021/08/24 15:49:40;;;;;;;7.80;3.20;;;;;;;;;;6177335;23;20176;-89
2021/08/24 15:52:46;;;;;;;6.38;3.10;;;;;;;;;;6176112;23;20186;-89
2021/08/24 15:55:53;;;;;;;6.32;3.17;;;;;;;;;;6175589;23;20168;-89
2021/08/24 15:58:58;;;;;;;5.07;3.40;;;;;;;;;;6195317;23;20215;-91
2021/08/24 16:02:04;;;;;;;4.57;2.90;;;;;;;;;;6175711;23;20176;-89
2021/08/24 16:05:12;;;;;;;5.80;3.60;;;;;;;;;;6176408;23;20287;-90
2021/08/24 16:08:17;;;;;;;4.70;3.22;;;;;;;;;;6176379;23;20168;-88
2021/08/24 16:11:24;;;;;;;6.28;3.22;;;;;;;;;;6177077;23;20224;-87
2021/08/24 16:14:29;;;;;;;5.47;3.20;;;;;;;;;;6175911;23;20172;-87
2021/08/24 16:17:34;;;;;;;6.40;3.55;;;;;;;;;;6175444;23;20519;-88
2021/08/24 16:20:42;;;;;;;5.15;3.40;;;;;;;;;;6175943;23;20176;-87
2021/08/24 16:23:48;;;;;;;5.22;3.67;;;;;;;;;;6179030;23;20168;-86
2021/08/24 16:26:52;;;;;;;7.43;3.95;;;;;;;;;;6176130;23;20167;-87
2021/08/24 16:29:57;;;;;;;9.63;4.18;;;;;;;;;;6176730;23;20243;-87
2021/08/24 16:33:02;;;;;;;7.20;3.72;;;;;;;;;;6176191;23;20607;-89
2021/08/24 16:36:09;;;;;;;7.88;4.38;;;;;;;;;;6177550;23;20203;-90
2021/08/24 16:39:14;;;;;;;6.93;3.75;;;;;;;;;;6176815;23;20223;-90
2021/08/24 16:42:20;;;;;;;6.35;3.80;;;;;;;;;;6177634;23;20180;-90
2021/08/24 16:45:26;;;;;;;6.25;3.60;;;;;;;;;;6175073;23;20168;-90
2021/08/24 16:48:31;;;;;;;8.02;3.53;;;;;;;;;;6178071;23;20164;-89
2021/08/24 16:51:37;;;;;;;6.70;3.38;;;;;;;;;;6177339;23;20167;-92
2021/08/24 16:54:42;;;;;;;8.05;3.72;;;;;;;;;;6177043;23;20175;-90
2021/08/24 16:57:51;;;;;;;4.35;3.38;;;;;;;;;;6178152;23;20331;-90
2021/08/24 17:00:57;;;;;;;5.82;3.28;;;;;;;;;;6178647;23;20191;-90
2021/08/24 17:04:02;;;;;;;6.43;3.30;;;;;;;;;;6177954;23;20199;-90
2021/08/24 17:07:22;;;;;;;10.82;3.50;;;;;;;;;;6176691;23;20164;-89
2021/08/24 17:10:29;;;;;;;4.70;3.03;;;;;;;;;;6176257;23;20172;-90
2021/08/24 17:13:34;;;;;;;6.30;2.90;;;;;;;;;;6175687;23;20171;-89
2021/08/24 17:16:40;;;;;;;4.38;3.25;;;;;;;;;;6180316;23;20607;-91
2021/08/24 17:19:45;;;;;;;7.15;3.30;;;;;;;;;;6177205;23;20624;-89
2021/08/24 17:22:50;;;;;;;5.32;3.28;;;;;;;;;;6175341;23;20276;-91
2021/08/24 17:25:57;;;;;;;6.22;3.28;;;;;;;;;;6175536;23;20198;-89
2021/08/24 17:29:03;;;;;;;15.20;5.22;;;;;;;;;;6176735;23;20171;-90
2021/08/24 17:32:08;;;;;;;6.78;3.22;;;;;;;;;;6177037;23;20176;-90
2021/08/24 17:35:15;;;;;;;7.13;3.50;;;;;;;;;;6178121;23;20168;-90
2021/08/24 17:38:20;;;;;;;9.65;3.28;;;;;;;;;;6177501;23;20242;-90
2021/08/24 17:41:28;;;;;;;6.60;3.45;;;;;;;;;;6176639;23;20168;-90
2021/08/24 17:44:34;;;;;;;6.03;4.13;;;;;;;;;;6164729;23;20354;-91
2021/08/24 17:47:43;;;;;;;4.68;3.33;;;;;;;;;;6164075;23;20173;-91
2021/08/24 17:50:59;;;;;;;5.82;4.00;;;;;;;;;;6164624;23;20296;-90
2021/08/24 17:54:03;;;;;;;11.48;4.30;;;;;;;;;;6164648;23;20177;-89
2021/08/24 17:57:10;;;;;;;6.13;3.95;;;;;;;;;;6164949;23;20196;-89
2021/08/24 18:00:16;;;;;;;6.72;4.20;;;;;;;;;;6165134;23;20222;-90
2021/08/24 18:07:11;;;;;;;8.73;4.60;;;;;;;;;;6166272;23;20153;-89
2021/08/24 18:10:15;;;;;;;7.55;4.95;;;;;;;;;;6167627;23;20216;-90
2021/08/24 18:13:22;;;;;;;7.32;4.10;;;;;;;;;;6164759;23;20160;-90
2021/08/24 18:16:53;;;;;;;8.77;4.43;;;;;;;;;;6165865;23;20172;-91
2021/08/24 18:19:58;;;;;;;8.60;4.32;;;;;;;;;;6165803;23;20181;-90
2021/08/24 18:23:03;;;;;;;10.45;5.00;;;;;;;;;;6167481;23;20172;-89
2021/08/24 18:26:08;;;;;;;6.70;4.03;;;;;;;;;;6166725;23;20312;-90
2021/08/24 18:29:15;;;;;;;6.10;4.28;;;;;;;;;;6164157;23;20188;-90
2021/08/24 18:32:22;;;;;;;6.15;4.20;;;;;;;;;;6168492;23;20160;-90
2021/08/24 18:35:29;;;;;;;14.52;6.18;;;;;;;;;;6166043;23;20179;-90
2021/08/24 18:38:34;;;;;;;11.30;5.25;;;;;;;;;;6167888;23;20192;-89
2021/08/24 18:41:41;;;;;;;16.77;9.70;;;;;;;;;;6166477;23;20172;-91
2021/08/24 18:44:48;;;;;;;19.10;7.65;;;;;;;;;;6167906;23;20809;-90
2021/08/24 18:47:53;;;;;;;6.05;4.07;;;;;;;;;;6167017;23;20176;-91
2021/08/24 18:51:02;;;;;;;18.98;10.32;;;;;;;;;;6167043;23;20172;-90
2021/08/24 18:54:07;;;;;;;10.60;6.60;;;;;;;;;;6168778;23;20176;-91
2021/08/24 18:57:12;;;;;;;15.40;8.77;;;;;;;;;;6169681;23;20152;-91
2021/08/24 19:04:38;;;;;;;11.73;5.45;;;;;;;;;;6169454;23;20161;-91